createdAt,value
2017-10-21T00:00:39.216Z,22.34
2017-10-21T00:03:05.084Z,22.31
2017-10-21T00:05:30.852Z,22.33
2017-10-21T00:07:56.616Z,22.31
2017-10-21T00:10:22.370Z,22.33
2017-10-21T00:12:48.171Z,22.37
2017-10-21T00:15:13.930Z,22.44
2017-10-21T00:17:40.704Z,22.29
2017-10-21T00:20:06.687Z,22.30
2017-10-21T00:22:32.444Z,22.37
2017-10-21T00:24:58.188Z,22.15
2017-10-21T00:27:23.932Z,22.31
2017-10-21T00:29:50.749Z,22.31
2017-10-21T00:32:16.502Z,22.14
2017-10-21T00:34:42.244Z,22.20
2017-10-21T00:37:08.004Z,22.32
2017-10-21T00:39:33.763Z,22.07
2017-10-21T00:41:59.671Z,22.29
2017-10-21T00:44:25.423Z,22.17
2017-10-21T00:49:43.408Z,22.06
2017-10-21T00:52:09.194Z,22.20
2017-10-21T00:54:35.800Z,22.36
2017-10-21T00:57:01.563Z,22.38
2017-10-21T00:59:27.310Z,22.20
2017-10-21T01:01:54.039Z,22.19
2017-10-21T01:04:19.976Z,22.06
2017-10-21T01:06:45.732Z,22.13
2017-10-21T01:09:11.492Z,22.27
2017-10-21T01:11:37.238Z,22.23
2017-10-21T01:14:03.874Z,22.28
2017-10-21T01:16:29.684Z,22.07
2017-10-21T01:18:56.343Z,22.20
2017-10-21T01:21:22.103Z,22.20
2017-10-21T01:23:47.865Z,22.17
2017-10-21T01:26:13.619Z,22.14
2017-10-21T01:28:39.430Z,22.21
2017-10-21T01:31:05.191Z,22.10
2017-10-21T01:33:30.938Z,22.20
2017-10-21T01:35:57.640Z,22.10
2017-10-21T01:38:23.462Z,22.16
2017-10-21T01:40:49.205Z,22.03
2017-10-21T01:43:15.739Z,22.15
2017-10-21T01:45:41.564Z,22.24
2017-10-21T01:48:07.310Z,22.12
2017-10-21T01:50:33.115Z,22.05
2017-10-21T01:52:59.003Z,22.13
2017-10-21T01:55:25.832Z,22.06
2017-10-21T01:57:51.669Z,22.21
2017-10-21T02:00:17.433Z,22.03
2017-10-21T02:02:43.236Z,22.14
2017-10-21T02:05:10.364Z,22.28
2017-10-21T02:07:36.150Z,22.05
2017-10-21T02:10:02.727Z,22.15
2017-10-21T02:12:29.475Z,22.13
2017-10-21T02:14:56.456Z,22.28
2017-10-21T02:17:22.244Z,22.00
2017-10-21T02:19:48.995Z,22.02
2017-10-21T02:22:14.791Z,22.13
2017-10-21T02:24:40.556Z,22.00
2017-10-21T02:27:07.184Z,22.17
2017-10-21T02:29:32.967Z,22.20
2017-10-21T02:31:58.731Z,22.22
2017-10-21T02:34:24.544Z,22.12
2017-10-21T02:36:51.394Z,22.14
2017-10-21T02:39:17.215Z,22.04
2017-10-21T02:41:43.085Z,21.97
2017-10-21T02:44:09.607Z,22.04
2017-10-21T02:46:36.299Z,21.99
2017-10-21T02:49:02.245Z,21.98
2017-10-21T02:51:28.983Z,21.98
2017-10-21T02:53:54.744Z,22.07
2017-10-21T02:56:21.331Z,22.01
2017-10-21T02:58:47.096Z,21.87
2017-10-21T03:01:13.987Z,21.98
2017-10-21T03:03:39.745Z,21.98
2017-10-21T03:06:06.358Z,21.86
2017-10-21T03:08:32.108Z,21.90
2017-10-21T03:10:58.836Z,22.06
2017-10-21T03:13:24.616Z,22.06
2017-10-21T03:15:51.352Z,22.01
2017-10-21T03:18:17.131Z,21.94
2017-10-21T03:20:42.879Z,21.99
2017-10-21T03:23:09.460Z,21.87
2017-10-21T03:25:36.249Z,21.97
2017-10-21T03:28:02.181Z,21.84
2017-10-21T03:30:27.928Z,22.03
2017-10-21T03:32:53.675Z,21.95
2017-10-21T03:35:19.433Z,21.87
2017-10-21T03:37:46.051Z,22.01
2017-10-21T03:40:12.817Z,22.06
2017-10-21T03:42:39.540Z,21.82
2017-10-21T03:45:05.445Z,21.87
2017-10-21T03:47:31.224Z,22.04
2017-10-21T03:49:57.817Z,21.92
2017-10-21T03:52:23.570Z,21.90
2017-10-21T03:54:49.352Z,22.06
2017-10-21T03:57:16.095Z,21.98
2017-10-21T03:59:41.876Z,21.99
2017-10-21T04:02:07.624Z,21.95
2017-10-21T04:04:34.217Z,21.81
2017-10-21T04:06:59.963Z,21.89
2017-10-21T04:09:25.705Z,21.87
2017-10-21T04:11:51.459Z,22.03
2017-10-21T04:14:17.203Z,21.91
2017-10-21T04:16:42.957Z,21.91
2017-10-21T04:19:09.660Z,21.81
2017-10-21T04:21:35.409Z,21.89
2017-10-21T04:24:01.171Z,21.79
2017-10-21T04:26:27.882Z,21.98
2017-10-21T04:28:53.632Z,21.81
2017-10-21T04:31:19.379Z,21.84
2017-10-21T04:33:45.158Z,21.83
2017-10-21T04:36:11.045Z,21.86
2017-10-21T04:38:36.788Z,21.89
2017-10-21T04:41:02.585Z,21.93
2017-10-21T04:43:28.338Z,21.91
2017-10-21T04:45:54.088Z,21.94
2017-10-21T04:48:19.829Z,21.96
2017-10-21T04:50:45.568Z,22.00
2017-10-21T04:53:11.365Z,22.05
2017-10-21T04:55:37.139Z,21.83
2017-10-21T04:58:02.892Z,21.85
2017-10-21T05:00:28.643Z,21.76
2017-10-21T05:02:55.347Z,21.79
2017-10-21T05:05:21.105Z,22.06
2017-10-21T05:07:46.864Z,21.85
2017-10-21T05:10:12.647Z,21.97
2017-10-21T05:12:39.351Z,21.87
2017-10-21T05:15:05.129Z,21.90
2017-10-21T05:17:31.677Z,21.88
2017-10-21T05:19:58.392Z,21.88
2017-10-21T05:22:25.137Z,21.91
2017-10-21T05:24:50.871Z,21.93
2017-10-21T05:27:17.571Z,21.99
2017-10-21T05:29:44.293Z,21.81
2017-10-21T05:32:10.956Z,21.87
2017-10-21T05:34:37.687Z,21.84
2017-10-21T05:37:03.431Z,21.97
2017-10-21T05:39:29.216Z,21.95
2017-10-21T05:41:54.966Z,21.83
2017-10-21T05:44:20.770Z,21.99
2017-10-21T05:46:46.535Z,22.00
2017-10-21T05:49:12.290Z,21.75
2017-10-21T05:51:38.041Z,21.85
2017-10-21T05:54:09.841Z,21.83
2017-10-21T05:56:35.628Z,21.84
2017-10-21T05:59:01.379Z,21.90
2017-10-21T06:01:27.147Z,21.82
2017-10-21T06:03:53.077Z,21.81
2017-10-21T06:06:18.846Z,21.78
2017-10-21T06:08:44.854Z,21.97
2017-10-21T06:11:11.460Z,21.90
2017-10-21T06:13:37.220Z,21.80
2017-10-21T06:16:03.099Z,21.81
2017-10-21T06:18:28.873Z,21.88
2017-10-21T06:20:54.709Z,21.80
2017-10-21T06:23:21.273Z,21.95
2017-10-21T06:25:47.064Z,21.86
2017-10-21T06:28:12.807Z,21.90
2017-10-21T06:30:39.255Z,21.94
2017-10-21T06:33:05.895Z,22.03
2017-10-21T06:35:31.648Z,21.98
2017-10-21T06:37:57.449Z,21.78
2017-10-21T06:40:24.118Z,21.88
2017-10-21T06:42:50.918Z,21.79
2017-10-21T06:45:17.603Z,21.99
2017-10-21T06:47:43.544Z,21.89
2017-10-21T06:50:09.352Z,21.96
2017-10-21T06:52:35.126Z,21.85
2017-10-21T06:55:01.824Z,22.04
2017-10-21T06:57:28.671Z,22.03
2017-10-21T06:59:54.539Z,22.00
2017-10-21T07:02:21.122Z,22.05
2017-10-21T07:04:47.080Z,21.89
2017-10-21T07:07:12.837Z,21.93
2017-10-21T07:09:44.820Z,21.92
2017-10-21T07:12:12.012Z,21.87
2017-10-21T07:14:37.776Z,21.97
2017-10-21T07:17:03.596Z,21.92
2017-10-21T07:19:29.353Z,21.90
2017-10-21T07:21:55.109Z,21.93
2017-10-21T07:24:20.871Z,22.02
2017-10-21T07:26:47.602Z,21.87
2017-10-21T07:29:14.466Z,22.09
2017-10-21T07:31:41.120Z,21.93
2017-10-21T07:34:06.889Z,22.10
2017-10-21T07:36:32.644Z,21.91
2017-10-21T07:38:58.405Z,21.98
2017-10-21T07:41:24.226Z,21.86
2017-10-21T07:43:50.033Z,21.96
2017-10-21T07:46:15.945Z,22.02
2017-10-21T07:48:41.712Z,21.80
2017-10-21T07:51:07.584Z,22.05
2017-10-21T07:53:33.329Z,22.11
2017-10-21T07:55:59.090Z,22.25
2017-10-21T07:58:24.841Z,21.89
2017-10-21T08:00:50.652Z,21.78
2017-10-21T08:03:16.419Z,21.88
2017-10-21T08:05:42.167Z,21.95
2017-10-21T08:08:07.949Z,22.08
2017-10-21T08:10:33.712Z,22.18
2017-10-21T08:12:59.469Z,22.29
2017-10-21T08:15:25.238Z,22.10
2017-10-21T08:17:50.987Z,22.35
2017-10-21T08:20:19.642Z,22.35
2017-10-21T08:22:45.489Z,22.26
2017-10-21T08:25:11.430Z,22.24
2017-10-21T08:27:38.202Z,22.28
2017-10-21T08:30:04.776Z,22.01
2017-10-21T08:32:31.492Z,22.16
2017-10-21T08:34:57.287Z,22.08
2017-10-21T08:37:23.032Z,21.82
2017-10-21T08:39:49.842Z,22.12
2017-10-21T08:42:15.600Z,21.90
2017-10-21T08:44:42.289Z,22.01
2017-10-21T08:47:08.077Z,21.89
2017-10-21T08:49:33.904Z,22.07
2017-10-21T08:51:59.665Z,21.82
2017-10-21T08:54:25.456Z,21.71
2017-10-21T08:56:51.207Z,21.80
2017-10-21T08:59:17.004Z,21.96
2017-10-21T09:01:43.668Z,21.76
2017-10-21T09:04:09.411Z,21.90
2017-10-21T09:06:35.156Z,21.83
2017-10-21T09:09:00.913Z,22.17
2017-10-21T09:11:27.281Z,21.57
2017-10-21T09:13:53.900Z,21.76
2017-10-21T09:16:20.652Z,21.70
2017-10-21T09:18:47.437Z,21.79
2017-10-21T09:21:13.224Z,21.72
2017-10-21T09:23:39.781Z,21.66
2017-10-21T09:26:07.136Z,22.07
2017-10-21T09:28:32.929Z,21.81
2017-10-21T09:30:59.544Z,21.73
2017-10-21T09:33:26.285Z,21.57
2017-10-21T09:35:52.864Z,21.96
2017-10-21T09:38:19.540Z,21.88
2017-10-21T09:40:46.277Z,21.78
2017-10-21T09:43:12.084Z,21.85
2017-10-21T09:45:38.684Z,21.53
2017-10-21T09:48:04.470Z,21.95
2017-10-21T09:50:30.227Z,21.68
2017-10-21T09:52:56.944Z,21.86
2017-10-21T09:55:22.737Z,21.98
2017-10-21T09:57:49.196Z,21.86
2017-10-21T10:00:16.577Z,21.68
2017-10-21T10:02:42.323Z,21.75
2017-10-21T10:05:08.888Z,21.92
2017-10-21T10:07:34.688Z,21.64
2017-10-21T10:10:01.380Z,21.77
2017-10-21T10:12:27.124Z,21.73
2017-10-21T10:14:53.817Z,21.76
2017-10-21T10:17:21.579Z,21.77
2017-10-21T10:19:47.348Z,21.93
2017-10-21T10:22:13.980Z,21.91
2017-10-21T10:24:40.697Z,21.57
2017-10-21T10:27:06.455Z,21.69
2017-10-21T10:29:33.147Z,21.71
2017-10-21T10:31:59.032Z,21.78
2017-10-21T10:34:24.779Z,21.85
2017-10-21T10:36:51.358Z,22.02
2017-10-21T10:39:17.181Z,21.78
2017-10-21T10:41:42.946Z,21.82
2017-10-21T10:44:09.584Z,21.76
2017-10-21T10:46:36.459Z,21.92
2017-10-21T10:49:02.252Z,21.44
2017-10-21T10:51:28.968Z,21.93
2017-10-21T10:53:55.585Z,22.03
2017-10-21T10:56:21.391Z,21.84
2017-10-21T10:58:47.143Z,22.01
2017-10-21T11:01:14.023Z,21.81
2017-10-21T11:03:40.789Z,21.65
2017-10-21T11:06:06.549Z,21.95
2017-10-21T11:08:32.352Z,21.92
2017-10-21T11:10:59.098Z,21.89
2017-10-21T11:13:24.852Z,21.92
2017-10-21T11:15:50.732Z,21.98
2017-10-21T11:18:16.512Z,22.05
2017-10-21T11:20:43.250Z,22.25
2017-10-21T11:23:09.007Z,21.90
2017-10-21T11:25:35.637Z,21.94
2017-10-21T11:28:01.380Z,22.08
2017-10-21T11:30:27.285Z,22.14
2017-10-21T11:32:54.049Z,22.10
2017-10-21T11:35:19.808Z,22.17
2017-10-21T11:37:47.043Z,22.14
2017-10-21T11:40:12.804Z,22.11
2017-10-21T11:42:38.570Z,22.15
2017-10-21T11:45:04.340Z,21.95
2017-10-21T11:47:31.056Z,22.04
2017-10-21T11:49:56.812Z,22.00
2017-10-21T11:52:23.216Z,22.11
2017-10-21T11:54:49.064Z,22.17
2017-10-21T11:57:14.823Z,22.30
2017-10-21T11:59:40.699Z,22.29
2017-10-21T12:02:06.443Z,21.59
2017-10-21T12:04:32.231Z,22.11
2017-10-21T12:06:57.980Z,22.25
2017-10-21T12:09:24.799Z,22.32
2017-10-21T12:11:51.531Z,22.42
2017-10-21T12:14:17.464Z,22.39
2017-10-21T12:16:44.167Z,22.50
2017-10-21T12:19:09.908Z,22.55
2017-10-21T12:21:36.690Z,22.55
2017-10-21T12:24:02.476Z,22.60
2017-10-21T12:26:28.219Z,22.60
2017-10-21T12:28:53.964Z,22.69
2017-10-21T12:31:19.723Z,22.65
2017-10-21T12:33:45.524Z,22.65
2017-10-21T12:36:11.259Z,22.69
2017-10-21T12:38:37.034Z,22.63
2017-10-21T12:41:02.779Z,22.68
2017-10-21T12:43:28.529Z,22.67
2017-10-21T12:45:56.004Z,22.70
2017-10-21T12:48:21.789Z,22.64
2017-10-21T12:50:47.624Z,22.65
2017-10-21T12:53:13.368Z,22.71
2017-10-21T12:55:39.156Z,22.74
2017-10-21T12:58:06.061Z,22.74
2017-10-21T13:00:32.679Z,22.69
2017-10-21T13:02:58.460Z,22.72
2017-10-21T13:05:25.103Z,22.75
2017-10-21T13:07:51.011Z,22.74
2017-10-21T13:10:19.039Z,22.75
2017-10-21T13:12:45.661Z,22.70
2017-10-21T13:15:11.449Z,22.75
2017-10-21T13:17:38.087Z,22.75
2017-10-21T13:20:04.010Z,22.71
2017-10-21T13:22:30.745Z,22.71
2017-10-21T13:24:56.537Z,22.70
2017-10-21T13:27:23.343Z,22.74
2017-10-21T13:29:49.095Z,22.74
2017-10-21T13:32:14.998Z,22.75
2017-10-21T13:34:40.743Z,22.71
2017-10-21T13:37:06.695Z,22.78
2017-10-21T13:39:32.438Z,22.98
2017-10-21T13:41:59.172Z,22.99
2017-10-21T13:44:24.944Z,22.95
2017-10-21T13:46:50.684Z,22.97
2017-10-21T13:49:17.135Z,22.99
2017-10-21T13:51:43.824Z,22.98
2017-10-21T13:54:10.506Z,23.06
2017-10-21T13:56:37.270Z,22.93
2017-10-21T13:59:03.020Z,22.96
2017-10-21T14:01:28.758Z,23.02
2017-10-21T14:03:54.499Z,23.00
2017-10-21T14:06:20.324Z,23.04
2017-10-21T14:08:46.085Z,22.99
2017-10-21T14:11:11.999Z,23.02
2017-10-21T14:13:38.583Z,22.95
2017-10-21T14:16:04.334Z,22.95
2017-10-21T14:18:30.084Z,22.91
2017-10-21T14:20:56.819Z,22.95
2017-10-21T14:23:23.942Z,22.92
2017-10-21T14:25:49.697Z,22.93
2017-10-21T14:28:15.438Z,22.97
2017-10-21T14:30:41.200Z,22.94
2017-10-21T14:33:06.952Z,22.95
2017-10-21T14:35:33.741Z,22.91
2017-10-21T14:38:00.451Z,22.93
2017-10-21T14:40:26.187Z,22.96
2017-10-21T14:42:51.933Z,22.49
2017-10-21T14:45:17.688Z,22.68
2017-10-21T14:47:43.559Z,22.69
2017-10-21T14:50:09.878Z,22.55
2017-10-21T14:52:35.641Z,22.39
2017-10-21T14:55:01.445Z,22.53
2017-10-21T14:57:27.225Z,22.62
2017-10-21T14:59:53.083Z,22.60
2017-10-21T15:02:18.841Z,22.72
2017-10-21T15:04:44.728Z,22.71
2017-10-21T15:07:10.476Z,22.69
2017-10-21T15:09:37.175Z,22.71
2017-10-21T15:12:03.740Z,22.67
2017-10-21T15:14:29.507Z,22.73
2017-10-21T15:16:55.295Z,22.68
2017-10-21T15:19:21.040Z,22.68
2017-10-21T15:21:47.004Z,22.73
2017-10-21T15:24:12.813Z,22.73
2017-10-21T15:26:40.144Z,22.76
2017-10-21T15:29:05.899Z,22.75
2017-10-21T15:31:31.656Z,22.73
2017-10-21T15:33:57.409Z,22.79
2017-10-21T15:36:23.159Z,22.74
2017-10-21T15:38:48.940Z,22.78
2017-10-21T15:41:14.675Z,22.76
2017-10-21T15:43:41.408Z,22.74
2017-10-21T15:46:08.220Z,22.72
2017-10-21T15:48:33.997Z,22.72
2017-10-21T15:50:59.743Z,22.77
2017-10-21T15:53:25.491Z,22.76
2017-10-21T15:55:51.280Z,22.78
2017-10-21T15:58:17.161Z,22.78
2017-10-21T16:00:43.077Z,22.81
2017-10-21T16:03:09.350Z,22.75
2017-10-21T16:05:35.529Z,22.75
2017-10-21T16:08:01.785Z,22.74
2017-10-21T16:10:28.041Z,22.80
2017-10-21T16:12:54.097Z,22.82
2017-10-21T16:15:19.830Z,22.84
2017-10-21T16:17:45.616Z,22.80
2017-10-21T16:20:11.378Z,22.81
2017-10-21T16:22:37.122Z,22.86
2017-10-21T16:25:02.872Z,22.74
2017-10-21T16:27:29.403Z,22.75
2017-10-21T16:29:55.376Z,22.76
2017-10-21T16:32:21.262Z,22.82
2017-10-21T16:34:47.078Z,22.81
2017-10-21T16:37:12.977Z,22.84
2017-10-21T16:39:38.733Z,22.80
2017-10-21T16:42:05.364Z,22.87
2017-10-21T16:44:31.114Z,22.79
2017-10-21T16:46:56.889Z,22.75
2017-10-21T16:49:22.852Z,22.71
2017-10-21T16:51:48.605Z,22.69
2017-10-21T16:54:14.476Z,22.72
2017-10-21T16:56:40.422Z,22.81
2017-10-21T16:59:07.103Z,22.76
2017-10-21T17:01:32.967Z,22.75
2017-10-21T17:04:00.632Z,22.76
2017-10-21T17:06:26.435Z,22.78
2017-10-21T17:08:53.542Z,22.69
2017-10-21T17:11:19.297Z,22.78
2017-10-21T17:13:45.088Z,22.81
2017-10-21T17:16:10.860Z,22.85
2017-10-21T17:18:37.532Z,22.90
2017-10-21T17:21:03.292Z,22.90
2017-10-21T17:23:29.103Z,22.86
2017-10-21T17:25:55.080Z,22.87
2017-10-21T17:28:20.835Z,22.95
2017-10-21T17:30:46.595Z,22.90
2017-10-21T17:33:12.370Z,22.85
2017-10-21T17:35:38.150Z,22.80
2017-10-21T17:38:03.937Z,22.79
2017-10-21T17:40:29.797Z,22.77
2017-10-21T17:42:55.588Z,22.79
2017-10-21T17:45:21.351Z,22.80
2017-10-21T17:47:47.099Z,22.78
2017-10-21T17:50:12.852Z,22.68
2017-10-21T17:52:38.598Z,22.69
2017-10-21T17:55:04.351Z,22.70
2017-10-21T17:57:30.096Z,22.81
2017-10-21T17:59:55.937Z,22.87
2017-10-21T18:02:21.727Z,22.83
2017-10-21T18:04:47.479Z,22.85
2017-10-21T18:07:13.236Z,22.73
2017-10-21T18:09:39.030Z,22.75
2017-10-21T18:12:04.780Z,22.80
2017-10-21T18:14:30.529Z,22.78
2017-10-21T18:16:57.123Z,22.79
2017-10-21T18:19:22.879Z,22.71
2017-10-21T18:21:49.487Z,22.76
2017-10-21T18:24:15.235Z,22.71
2017-10-21T18:26:40.984Z,22.69
2017-10-21T18:29:06.740Z,22.77
2017-10-21T18:31:32.497Z,22.78
2017-10-21T18:33:58.334Z,22.81
2017-10-21T18:36:24.117Z,22.79
2017-10-21T18:38:49.940Z,22.79
2017-10-21T18:41:15.727Z,22.79
2017-10-21T18:43:41.525Z,22.71
2017-10-21T18:46:07.299Z,22.78
2017-10-21T18:48:33.100Z,22.88
2017-10-21T18:50:58.895Z,22.79
2017-10-21T18:53:24.826Z,22.80
2017-10-21T18:55:51.421Z,22.81
2017-10-21T18:58:17.168Z,22.77
2017-10-21T19:00:42.950Z,22.72
2017-10-21T19:03:08.744Z,22.76
2017-10-21T19:05:34.499Z,22.77
2017-10-21T19:08:00.365Z,22.64
2017-10-21T19:10:26.221Z,22.82
2017-10-21T19:12:51.960Z,22.75
2017-10-21T19:15:17.777Z,22.75
2017-10-21T19:17:48.954Z,22.73
2017-10-21T19:20:15.024Z,22.76
2017-10-21T19:22:41.215Z,22.82
2017-10-21T19:25:07.016Z,22.75
2017-10-21T19:27:39.062Z,22.70
2017-10-21T19:30:04.875Z,22.80
2017-10-21T19:32:30.921Z,22.79
2017-10-21T19:34:56.767Z,22.78
2017-10-21T19:37:22.517Z,22.89
2017-10-21T19:39:48.267Z,22.86
2017-10-21T19:42:14.012Z,22.90
2017-10-21T19:44:39.764Z,22.94
2017-10-21T19:47:05.621Z,22.85
2017-10-21T19:49:31.369Z,22.90
2017-10-21T19:51:57.127Z,22.90
2017-10-21T19:54:22.941Z,22.84
2017-10-21T19:56:49.724Z,22.80
2017-10-21T19:59:15.484Z,22.78
2017-10-21T20:01:41.357Z,22.83
2017-10-21T20:04:07.127Z,22.79
2017-10-21T20:06:32.898Z,22.85
2017-10-21T20:09:00.459Z,22.84
2017-10-21T20:11:26.356Z,22.85
2017-10-21T20:13:53.632Z,22.86
2017-10-21T20:16:20.371Z,22.83
2017-10-21T20:18:46.252Z,22.90
2017-10-21T20:21:12.032Z,22.90
2017-10-21T20:23:37.947Z,22.80
2017-10-21T20:26:03.741Z,22.77
2017-10-21T20:28:29.641Z,22.78
2017-10-21T20:30:55.492Z,22.86
2017-10-21T20:33:23.303Z,22.90
2017-10-21T20:35:49.071Z,22.88
2017-10-21T20:38:14.855Z,22.83
2017-10-21T20:40:40.616Z,22.79
2017-10-21T20:43:06.416Z,22.76
2017-10-21T20:45:32.206Z,22.78
2017-10-21T20:47:57.989Z,22.76
2017-10-21T20:50:26.657Z,22.78
2017-10-21T20:52:52.435Z,22.78
2017-10-21T20:55:18.204Z,22.81
2017-10-21T20:57:43.951Z,22.80
2017-10-21T21:00:09.704Z,22.76
2017-10-21T21:02:35.519Z,22.82
2017-10-21T21:05:01.270Z,22.82
2017-10-21T21:07:27.025Z,22.94
2017-10-21T21:09:52.828Z,22.86
2017-10-21T21:12:18.584Z,22.81
2017-10-21T21:14:45.181Z,22.78
2017-10-21T21:17:11.054Z,22.77
2017-10-21T21:19:36.819Z,22.84
2017-10-21T21:22:02.764Z,22.77
2017-10-21T21:24:29.698Z,22.82
2017-10-21T21:26:56.112Z,22.81
2017-10-21T21:29:21.866Z,22.79
2017-10-21T21:31:48.441Z,22.72
2017-10-21T21:34:15.029Z,22.78
2017-10-21T21:36:40.792Z,22.81
2017-10-21T21:39:06.597Z,22.82
2017-10-21T21:41:32.378Z,22.81
2017-10-21T21:43:58.133Z,22.80
2017-10-21T21:46:23.990Z,22.75
2017-10-21T21:48:49.763Z,22.73
2017-10-21T21:51:15.551Z,22.83
2017-10-21T21:53:41.327Z,22.83
2017-10-21T21:56:07.964Z,22.81
2017-10-21T21:58:33.741Z,22.77
2017-10-21T22:00:59.492Z,22.81
2017-10-21T22:03:25.417Z,22.86
2017-10-21T22:05:52.198Z,22.87
2017-10-21T22:08:18.112Z,22.88
2017-10-21T22:10:44.527Z,22.90
2017-10-21T22:13:10.328Z,22.93
2017-10-21T22:15:36.147Z,22.86
2017-10-21T22:18:01.906Z,22.92
2017-10-21T22:20:27.656Z,22.92
2017-10-21T22:22:53.503Z,22.94
2017-10-21T22:25:19.313Z,22.85
2017-10-21T22:27:45.284Z,22.95
2017-10-21T22:30:11.948Z,22.97
2017-10-21T22:32:37.709Z,22.82
2017-10-21T22:35:03.474Z,22.87
2017-10-21T22:37:29.251Z,22.86
2017-10-21T22:39:55.031Z,22.86
2017-10-21T22:42:20.780Z,22.86
2017-10-21T22:44:46.531Z,22.94
2017-10-21T22:47:12.304Z,22.89
2017-10-21T22:49:38.039Z,22.89
2017-10-21T22:52:04.805Z,22.82
2017-10-21T22:54:30.699Z,22.84
2017-10-21T22:56:56.456Z,22.83
2017-10-21T22:59:22.247Z,22.84
2017-10-21T23:01:47.991Z,22.91
2017-10-21T23:04:14.409Z,22.89
2017-10-21T23:06:40.164Z,22.86
2017-10-21T23:09:05.904Z,22.78
2017-10-21T23:11:32.638Z,22.76
2017-10-21T23:13:59.301Z,22.85
2017-10-21T23:16:25.980Z,22.92
2017-10-21T23:18:51.858Z,22.85
2017-10-21T23:21:17.813Z,22.88
2017-10-21T23:23:43.551Z,22.91
2017-10-21T23:26:09.422Z,22.85
2017-10-21T23:28:36.176Z,22.83
2017-10-21T23:31:01.931Z,22.81
2017-10-21T23:33:27.724Z,22.85
2017-10-21T23:35:53.483Z,22.85
2017-10-21T23:38:20.362Z,22.88
2017-10-21T23:40:46.113Z,22.86
2017-10-21T23:43:12.816Z,22.84
2017-10-21T23:45:39.422Z,22.76
2017-10-21T23:48:05.176Z,22.82
2017-10-21T23:50:30.936Z,22.83
2017-10-21T23:52:56.676Z,22.81
2017-10-21T23:55:23.368Z,22.83
2017-10-21T23:57:49.118Z,22.84
